Rock Springs, WY

4:34 PM MDT on October 21, 2014 (GMT -0600)
Rock Springs-Sweetwater | Change Station
CLOSE
Current Station
Airport
Location: Rock Springs,
Elevation: 6759 ft
Nearby Weather Stations
Active Advisory: Special Statement

Elev 6759 ft 41.59 °N, 109.05 °W | Updated 14 minutes ago

Thunderstorm
Thunderstorm
47 °F
Feels Like 47 °F
N
20
Wind Variable Wind from South
Gusts 32 mph

Today
High -- | Low -- °F
--% Chance of Precip.
Yesterday
High -- | Low -- °F
Precip. -- in
7:34 AM 6:25 PM
Waning Crescent, 4% visible
Pressure 30.01 in
Visibility 3.0 miles
Clouds Mostly Cloudy 4100 ft
Overcast 5000 ft
Dew Point 40 °F
Humidity 77%
Rainfall 0.00 in
Snow Depth Not available.
UV 1 out of 12
Pollen 3.00 out of 12
Air Quality Not available.
Flu Activity Sporadic
SPECI KRKS 212220Z AUTO 19017G28KT 3SM -TSRA BKN041 OVC050 08/04 A3001 RMK AO2 PK WND 21028/2217 LTG DSNT NE TSB2157 P0011 T00830044

More Conditions Fewer Conditions

Pressure 30.01 in
Visibility 3.0 miles
Clouds Mostly Cloudy 4100 ft
Overcast 5000 ft
Dew Point 40 °F
Humidity 77%
Rainfall 0.00 in
Snow Depth Not available.
UV 1 out of 12
Pollen 3.00 out of 12
Air Quality Not available.
Flu Activity Sporadic
SPECI KRKS 212220Z AUTO 19017G28KT 3SM -TSRA BKN041 OVC050 08/04 A3001 RMK AO2 PK WND 21028/2217 LTG DSNT NE TSB2157 P0011 T00830044

More Conditions Fewer Conditions

10-Day Weather Forecast

Almanac

Astronomy

Oct. 21, 2014 Rise Set
Actual Time 7:34 AM MDT 6:25 PM MDT
Civil Twilight 7:06 AM MDT 6:53 PM MDT
Nautical Twilight 6:34 AM MDT 7:25 PM MDT
Astronomical Twilight 6:02 AM MDT 7:57 PM MDT
Moon 5:20 AM MDT 5:22 PM MDT
Length of Visible Light 11h 46m
Length of Day
10h 50m
Tomorrow will be 2m 37s shorter.
Waning Crescent, 4% of the Moon is Illuminated
Today
Waning Crescent
Oct 23
New
Oct 30
First Quarter
Nov 6
Full
Nov 14
Last Quarter

Today's Extremes

State Highs State Lows

Community

WunderPhotos

Upload Photos

1,763,804 photos uploaded!

Nearby

Snow Depth

Station Depth Elevation
South Pass 0 in 9040 ft
Big Sandy Opening 1 in 9080 ft
Sage Creek Basin 0 in 7850 ft
Hams Fork 0 in 7840 ft
St. Lawrence Alt 1 in 8620 ft

Earthquake Activity

City Distance Mag. Time & Date
No recent earthquake activity has been reported nearby.
Minimum magnitude displayed is 2.5.

Coastal Water Temperatures

Place Temperature
No Stations Reporting

Nearby Weather Stations